Greater Kankakee Airport
KIKK : now visible

Airfield :











YOU CAN JOIN US ON...

 
LOGIN :

Register | Disclaimer

   EN    FR    IT 

 









Legend :    VFR   Marginal VFR   IFR   Intensive IFR   Very Intensive IFR
Visi :
Ceiling :
>= 8 km
>= 3000ft
5 to 8 km
1000 to 3000 ft
1500m to 5 km
500 to 1000 ft
800 to 1500m
200 to 500 ft
< 800m
< 200 ft
Symbols :   Thunderstorms  Fog  Heavy snow  Heavy precipitations  Wind > 20 kt






- Airport Elevation : 630 ft


KIKK - Greater Kankakee

CURRENT METAR :
  • 081815Z AUTO 11004KT 10SM CLR 23/05 A2971 RMK AO2 T02270053

EXPIRED METARs :
  • 081755Z AUTO 15004KT 10SM CLR 22/07 A2972 RMK AO2 T02240070 10224 20107
  • 081735Z AUTO 16005KT 10SM CLR 22/07 A2973 RMK AO2 T02160071
  • 081715Z AUTO 19003KT 10SM CLR 21/08 A2975 RMK AO2 T02100076
  • 081655Z AUTO 15005KT 10SM CLR 20/08 A2976 RMK AO2 T02030084
  • 081635Z AUTO 16005KT 10SM CLR 20/09 A2977 RMK AO2 T01950094
  • 081615Z AUTO 15006KT 10SM CLR 19/10 A2978 RMK AO2 T01860095
  • 081555Z AUTO 11005KT 10SM CLR 18/10 A2978 RMK AO2 T01750099
  • 081535Z AUTO 14006KT 10SM CLR 17/10 A2979 RMK AO2 T01650096
  • 081515Z AUTO 12003KT 10SM CLR 16/10 A2979 RMK AO2 T01590097

TAF N/A



MET'MAP, your aeronautical weather chart ! - Copyright ORBIFLY December 2007 - Disclaimer

ORBIFLY MET'MAP TEAM :

Programming & Development : Alexandra Zaïnal
Concept & original design : Baudouin d'Aumeries
Assistance for programming : Marc-Olivier Méhu
Technical & hardware support : Manuel Goepfert

Contact : metmap@orbifly.com




SOURCES & CREDITS :

   NOAA       Earth
Advisory